sensor_id;sensor_type;location;lat;lon;timestamp;P1;durP1;ratioP1;P2;durP2;ratioP2
12118;SDS011;6123;48.864;9.200;2022-07-23T00:00:09;7.80;;;5.97;;
12118;SDS011;6123;48.864;9.200;2022-07-23T00:02:37;5.90;;;5.40;;
12118;SDS011;6123;48.864;9.200;2022-07-23T00:05:03;5.95;;;5.47;;
12118;SDS011;6123;48.864;9.200;2022-07-23T00:07:29;6.88;;;5.10;;
12118;SDS011;6123;48.864;9.200;2022-07-23T00:09:55;5.80;;;5.28;;
12118;SDS011;6123;48.864;9.200;2022-07-23T00:12:23;5.00;;;4.65;;
12118;SDS011;6123;48.864;9.200;2022-07-23T00:14:48;5.32;;;4.93;;
12118;SDS011;6123;48.864;9.200;2022-07-23T00:17:14;5.40;;;4.90;;
12118;SDS011;6123;48.864;9.200;2022-07-23T00:19:42;6.10;;;4.95;;
12118;SDS011;6123;48.864;9.200;2022-07-23T00:22:07;5.13;;;4.70;;
12118;SDS011;6123;48.864;9.200;2022-07-23T00:24:33;5.40;;;4.90;;
12118;SDS011;6123;48.864;9.200;2022-07-23T00:27:01;5.35;;;4.85;;
12118;SDS011;6123;48.864;9.200;2022-07-23T00:29:27;4.85;;;4.45;;
12118;SDS011;6123;48.864;9.200;2022-07-23T00:31:52;5.15;;;4.72;;
12118;SDS011;6123;48.864;9.200;2022-07-23T00:34:18;5.95;;;5.00;;
12118;SDS011;6123;48.864;9.200;2022-07-23T00:36:44;5.55;;;5.00;;
12118;SDS011;6123;48.864;9.200;2022-07-23T00:39:14;4.97;;;4.50;;
12118;SDS011;6123;48.864;9.200;2022-07-23T00:41:42;5.30;;;4.80;;
12118;SDS011;6123;48.864;9.200;2022-07-23T00:44:21;5.43;;;4.88;;
12118;SDS011;6123;48.864;9.200;2022-07-23T00:46:52;4.95;;;4.53;;
12118;SDS011;6123;48.864;9.200;2022-07-23T00:49:22;4.88;;;4.53;;
12118;SDS011;6123;48.864;9.200;2022-07-23T00:51:49;4.93;;;4.50;;
12118;SDS011;6123;48.864;9.200;2022-07-23T00:54:15;5.28;;;4.88;;
12118;SDS011;6123;48.864;9.200;2022-07-23T00:56:45;5.28;;;4.88;;
12118;SDS011;6123;48.864;9.200;2022-07-23T00:59:12;5.20;;;4.78;;
12118;SDS011;6123;48.864;9.200;2022-07-23T01:01:40;5.55;;;5.05;;
12118;SDS011;6123;48.864;9.200;2022-07-23T01:04:06;4.90;;;4.57;;
12118;SDS011;6123;48.864;9.200;2022-07-23T01:06:34;5.03;;;4.72;;
12118;SDS011;6123;48.864;9.200;2022-07-23T01:09:02;5.68;;;5.10;;
12118;SDS011;6123;48.864;9.200;2022-07-23T01:11:32;5.40;;;5.00;;
12118;SDS011;6123;48.864;9.200;2022-07-23T01:13:59;5.30;;;4.85;;
12118;SDS011;6123;48.864;9.200;2022-07-23T01:16:34;5.80;;;5.40;;
12118;SDS011;6123;48.864;9.200;2022-07-23T01:19:00;5.18;;;4.85;;
12118;SDS011;6123;48.864;9.200;2022-07-23T01:21:25;4.97;;;4.68;;
12118;SDS011;6123;48.864;9.200;2022-07-23T01:23:51;5.28;;;4.90;;
12118;SDS011;6123;48.864;9.200;2022-07-23T01:26:17;4.63;;;4.32;;
12118;SDS011;6123;48.864;9.200;2022-07-23T01:28:43;5.35;;;4.95;;
12118;SDS011;6123;48.864;9.200;2022-07-23T01:31:08;5.05;;;4.65;;
12118;SDS011;6123;48.864;9.200;2022-07-23T01:33:37;4.68;;;4.38;;
12118;SDS011;6123;48.864;9.200;2022-07-23T01:36:03;5.20;;;4.80;;
12118;SDS011;6123;48.864;9.200;2022-07-23T01:38:28;4.70;;;4.40;;
12118;SDS011;6123;48.864;9.200;2022-07-23T01:40:54;4.95;;;4.65;;
12118;SDS011;6123;48.864;9.200;2022-07-23T01:43:22;5.15;;;4.85;;
12118;SDS011;6123;48.864;9.200;2022-07-23T01:45:50;5.30;;;4.90;;
12118;SDS011;6123;48.864;9.200;2022-07-23T01:48:15;5.38;;;4.97;;
12118;SDS011;6123;48.864;9.200;2022-07-23T01:50:41;5.03;;;4.72;;
12118;SDS011;6123;48.864;9.200;2022-07-23T01:53:07;5.07;;;4.78;;
12118;SDS011;6123;48.864;9.200;2022-07-23T01:55:35;4.93;;;4.55;;
12118;SDS011;6123;48.864;9.200;2022-07-23T01:58:01;5.20;;;4.70;;
12118;SDS011;6123;48.864;9.200;2022-07-23T02:00:26;5.45;;;5.05;;
12118;SDS011;6123;48.864;9.200;2022-07-23T02:02:52;5.03;;;4.72;;
12118;SDS011;6123;48.864;9.200;2022-07-23T02:05:17;5.22;;;4.82;;
12118;SDS011;6123;48.864;9.200;2022-07-23T02:07:43;5.13;;;4.72;;
12118;SDS011;6123;48.864;9.200;2022-07-23T02:10:09;4.90;;;4.47;;
12118;SDS011;6123;48.864;9.200;2022-07-23T02:12:34;5.15;;;4.75;;
12118;SDS011;6123;48.864;9.200;2022-07-23T02:15:01;5.10;;;4.70;;
12118;SDS011;6123;48.864;9.200;2022-07-23T02:17:26;5.13;;;4.70;;
12118;SDS011;6123;48.864;9.200;2022-07-23T02:19:52;4.80;;;4.50;;
12118;SDS011;6123;48.864;9.200;2022-07-23T02:22:20;5.32;;;4.93;;
12118;SDS011;6123;48.864;9.200;2022-07-23T02:24:46;5.22;;;4.53;;
12118;SDS011;6123;48.864;9.200;2022-07-23T02:27:11;4.63;;;4.32;;
12118;SDS011;6123;48.864;9.200;2022-07-23T02:29:37;5.22;;;4.80;;
12118;SDS011;6123;48.864;9.200;2022-07-23T02:32:05;5.53;;;5.13;;
12118;SDS011;6123;48.864;9.200;2022-07-23T02:34:30;5.10;;;4.70;;
12118;SDS011;6123;48.864;9.200;2022-07-23T02:36:56;4.97;;;4.68;;
12118;SDS011;6123;48.864;9.200;2022-07-23T02:39:22;6.05;;;4.90;;
12118;SDS011;6123;48.864;9.200;2022-07-23T02:41:47;5.20;;;4.80;;
12118;SDS011;6123;48.864;9.200;2022-07-23T02:44:13;5.25;;;4.93;;
12118;SDS011;6123;48.864;9.200;2022-07-23T02:46:38;5.40;;;5.00;;
12118;SDS011;6123;48.864;9.200;2022-07-23T02:49:08;5.32;;;4.93;;
12118;SDS011;6123;48.864;9.200;2022-07-23T02:51:34;6.05;;;4.70;;
12118;SDS011;6123;48.864;9.200;2022-07-23T02:54:00;5.75;;;5.25;;
12118;SDS011;6123;48.864;9.200;2022-07-23T02:56:25;5.82;;;5.32;;
12118;SDS011;6123;48.864;9.200;2022-07-23T02:58:51;7.55;;;5.65;;
12118;SDS011;6123;48.864;9.200;2022-07-23T03:01:17;5.75;;;5.35;;
12118;SDS011;6123;48.864;9.200;2022-07-23T03:03:42;5.20;;;4.80;;
12118;SDS011;6123;48.864;9.200;2022-07-23T03:06:08;5.43;;;5.03;;
12118;SDS011;6123;48.864;9.200;2022-07-23T03:08:36;5.30;;;4.90;;
12118;SDS011;6123;48.864;9.200;2022-07-23T03:11:04;5.70;;;5.30;;
12118;SDS011;6123;48.864;9.200;2022-07-23T03:13:35;5.93;;;5.50;;
12118;SDS011;6123;48.864;9.200;2022-07-23T03:16:02;5.72;;;5.22;;
12118;SDS011;6123;48.864;9.200;2022-07-23T03:18:28;6.15;;;5.65;;
12118;SDS011;6123;48.864;9.200;2022-07-23T03:20:56;5.68;;;5.28;;
12118;SDS011;6123;48.864;9.200;2022-07-23T03:23:25;6.10;;;5.60;;
12118;SDS011;6123;48.864;9.200;2022-07-23T03:25:51;5.53;;;5.13;;
12118;SDS011;6123;48.864;9.200;2022-07-23T03:28:17;5.70;;;5.20;;
12118;SDS011;6123;48.864;9.200;2022-07-23T03:30:43;5.15;;;4.75;;
12118;SDS011;6123;48.864;9.200;2022-07-23T03:33:12;5.68;;;5.25;;
12118;SDS011;6123;48.864;9.200;2022-07-23T03:35:38;5.85;;;5.35;;
12118;SDS011;6123;48.864;9.200;2022-07-23T03:38:03;6.22;;;5.72;;
12118;SDS011;6123;48.864;9.200;2022-07-23T03:40:31;5.85;;;5.45;;
12118;SDS011;6123;48.864;9.200;2022-07-23T03:42:59;5.72;;;5.32;;
12118;SDS011;6123;48.864;9.200;2022-07-23T03:45:28;5.85;;;5.22;;
12118;SDS011;6123;48.864;9.200;2022-07-23T03:47:54;5.80;;;4.90;;
12118;SDS011;6123;48.864;9.200;2022-07-23T03:50:19;5.55;;;5.05;;
12118;SDS011;6123;48.864;9.200;2022-07-23T03:52:45;5.20;;;4.80;;
12118;SDS011;6123;48.864;9.200;2022-07-23T03:55:11;5.15;;;4.68;;
12118;SDS011;6123;48.864;9.200;2022-07-23T03:57:36;5.43;;;5.05;;
12118;SDS011;6123;48.864;9.200;2022-07-23T04:00:05;6.25;;;5.75;;
12118;SDS011;6123;48.864;9.200;2022-07-23T04:02:33;5.85;;;5.45;;
12118;SDS011;6123;48.864;9.200;2022-07-23T04:04:59;5.07;;;4.65;;
12118;SDS011;6123;48.864;9.200;2022-07-23T04:07:28;6.05;;;5.57;;
12118;SDS011;6123;48.864;9.200;2022-07-23T04:09:53;5.60;;;5.20;;
12118;SDS011;6123;48.864;9.200;2022-07-23T04:12:19;5.70;;;5.30;;
12118;SDS011;6123;48.864;9.200;2022-07-23T04:14:47;6.00;;;5.40;;
12118;SDS011;6123;48.864;9.200;2022-07-23T04:17:17;5.63;;;5.20;;
12118;SDS011;6123;48.864;9.200;2022-07-23T04:19:42;5.32;;;4.93;;
12118;SDS011;6123;48.864;9.200;2022-07-23T04:22:11;5.72;;;5.22;;
12118;SDS011;6123;48.864;9.200;2022-07-23T04:24:37;5.60;;;5.20;;
12118;SDS011;6123;48.864;9.200;2022-07-23T04:27:03;5.80;;;5.40;;
12118;SDS011;6123;48.864;9.200;2022-07-23T04:29:31;6.32;;;5.82;;
12118;SDS011;6123;48.864;9.200;2022-07-23T04:31:59;5.47;;;5.07;;
12118;SDS011;6123;48.864;9.200;2022-07-23T04:34:27;5.63;;;5.10;;
12118;SDS011;6123;48.864;9.200;2022-07-23T04:36:53;5.95;;;5.53;;
12118;SDS011;6123;48.864;9.200;2022-07-23T04:39:19;5.72;;;5.30;;
12118;SDS011;6123;48.864;9.200;2022-07-23T04:41:47;5.80;;;5.30;;
12118;SDS011;6123;48.864;9.200;2022-07-23T04:44:13;5.50;;;5.10;;
12118;SDS011;6123;48.864;9.200;2022-07-23T04:46:38;5.68;;;5.28;;
12118;SDS011;6123;48.864;9.200;2022-07-23T04:49:04;5.47;;;5.07;;
12118;SDS011;6123;48.864;9.200;2022-07-23T04:51:32;5.57;;;5.07;;
12118;SDS011;6123;48.864;9.200;2022-07-23T04:53:57;5.97;;;5.47;;
12118;SDS011;6123;48.864;9.200;2022-07-23T04:56:23;5.57;;;5.18;;
12118;SDS011;6123;48.864;9.200;2022-07-23T04:58:49;5.78;;;5.38;;
12118;SDS011;6123;48.864;9.200;2022-07-23T05:01:14;5.50;;;5.10;;
12118;SDS011;6123;48.864;9.200;2022-07-23T05:03:40;5.90;;;5.40;;
12118;SDS011;6123;48.864;9.200;2022-07-23T05:06:06;5.63;;;5.13;;
12118;SDS011;6123;48.864;9.200;2022-07-23T05:08:33;6.15;;;5.65;;
12118;SDS011;6123;48.864;9.200;2022-07-23T05:11:01;5.80;;;5.35;;
12118;SDS011;6123;48.864;9.200;2022-07-23T05:13:26;6.30;;;5.70;;
12118;SDS011;6123;48.864;9.200;2022-07-23T05:15:52;6.00;;;5.50;;
12118;SDS011;6123;48.864;9.200;2022-07-23T05:18:17;5.93;;;5.43;;
12118;SDS011;6123;48.864;9.200;2022-07-23T05:20:43;5.90;;;5.45;;
12118;SDS011;6123;48.864;9.200;2022-07-23T05:23:09;5.93;;;5.53;;
12118;SDS011;6123;48.864;9.200;2022-07-23T05:25:35;5.57;;;5.18;;
12118;SDS011;6123;48.864;9.200;2022-07-23T05:28:01;6.40;;;5.75;;
12118;SDS011;6123;48.864;9.200;2022-07-23T05:30:28;5.72;;;5.30;;
12118;SDS011;6123;48.864;9.200;2022-07-23T05:32:54;7.38;;;5.15;;
12118;SDS011;6123;48.864;9.200;2022-07-23T05:35:22;5.90;;;5.40;;
12118;SDS011;6123;48.864;9.200;2022-07-23T05:37:50;6.38;;;5.88;;
12118;SDS011;6123;48.864;9.200;2022-07-23T05:40:18;7.40;;;5.68;;
12118;SDS011;6123;48.864;9.200;2022-07-23T05:42:44;5.90;;;5.40;;
12118;SDS011;6123;48.864;9.200;2022-07-23T05:45:10;6.00;;;5.50;;
12118;SDS011;6123;48.864;9.200;2022-07-23T05:47:39;6.22;;;5.70;;
12118;SDS011;6123;48.864;9.200;2022-07-23T05:50:05;6.18;;;5.68;;
12118;SDS011;6123;48.864;9.200;2022-07-23T05:52:31;5.57;;;5.15;;
12118;SDS011;6123;48.864;9.200;2022-07-23T05:55:02;7.95;;;5.47;;
12118;SDS011;6123;48.864;9.200;2022-07-23T05:57:28;6.10;;;5.68;;
12118;SDS011;6123;48.864;9.200;2022-07-23T05:59:53;6.32;;;5.82;;
12118;SDS011;6123;48.864;9.200;2022-07-23T06:02:19;6.20;;;5.78;;
12118;SDS011;6123;48.864;9.200;2022-07-23T06:04:44;6.97;;;6.32;;
12118;SDS011;6123;48.864;9.200;2022-07-23T06:07:13;6.78;;;6.18;;
12118;SDS011;6123;48.864;9.200;2022-07-23T06:09:39;6.57;;;6.07;;
12118;SDS011;6123;48.864;9.200;2022-07-23T06:12:04;7.00;;;6.45;;
12118;SDS011;6123;48.864;9.200;2022-07-23T06:14:30;6.45;;;6.05;;
12118;SDS011;6123;48.864;9.200;2022-07-23T06:16:56;6.70;;;6.05;;
12118;SDS011;6123;48.864;9.200;2022-07-23T06:19:22;6.60;;;6.10;;
12118;SDS011;6123;48.864;9.200;2022-07-23T06:21:47;7.55;;;5.38;;
12118;SDS011;6123;48.864;9.200;2022-07-23T06:24:13;7.68;;;5.97;;
12118;SDS011;6123;48.864;9.200;2022-07-23T06:26:39;8.32;;;5.70;;
12118;SDS011;6123;48.864;9.200;2022-07-23T06:29:07;6.50;;;6.00;;
12118;SDS011;6123;48.864;9.200;2022-07-23T06:31:32;6.97;;;5.97;;
12118;SDS011;6123;48.864;9.200;2022-07-23T06:34:00;7.65;;;6.63;;
12118;SDS011;6123;48.864;9.200;2022-07-23T06:36:28;6.05;;;5.53;;
12118;SDS011;6123;48.864;9.200;2022-07-23T06:38:54;6.78;;;6.20;;
12118;SDS011;6123;48.864;9.200;2022-07-23T06:41:19;7.13;;;6.53;;
12118;SDS011;6123;48.864;9.200;2022-07-23T06:43:45;6.38;;;5.78;;
12118;SDS011;6123;48.864;9.200;2022-07-23T06:46:11;6.70;;;6.20;;
12118;SDS011;6123;48.864;9.200;2022-07-23T06:48:36;6.30;;;5.80;;
12118;SDS011;6123;48.864;9.200;2022-07-23T06:51:02;6.80;;;6.20;;
12118;SDS011;6123;48.864;9.200;2022-07-23T06:53:30;6.30;;;5.80;;
12118;SDS011;6123;48.864;9.200;2022-07-23T06:55:58;6.80;;;6.20;;
12118;SDS011;6123;48.864;9.200;2022-07-23T06:58:24;6.63;;;6.13;;
12118;SDS011;6123;48.864;9.200;2022-07-23T07:00:52;7.60;;;6.80;;
12118;SDS011;6123;48.864;9.200;2022-07-23T07:03:17;7.20;;;6.60;;
12118;SDS011;6123;48.864;9.200;2022-07-23T07:05:43;8.48;;;7.05;;
12118;SDS011;6123;48.864;9.200;2022-07-23T07:08:09;7.65;;;6.95;;
12118;SDS011;6123;48.864;9.200;2022-07-23T07:10:35;7.75;;;7.03;;
12118;SDS011;6123;48.864;9.200;2022-07-23T07:13:01;7.63;;;6.95;;
12118;SDS011;6123;48.864;9.200;2022-07-23T07:15:26;7.22;;;6.53;;
12118;SDS011;6123;48.864;9.200;2022-07-23T07:17:52;7.40;;;6.80;;
12118;SDS011;6123;48.864;9.200;2022-07-23T07:20:18;7.15;;;6.63;;
12118;SDS011;6123;48.864;9.200;2022-07-23T07:22:54;7.70;;;7.10;;
12118;SDS011;6123;48.864;9.200;2022-07-23T07:25:20;7.13;;;6.47;;
12118;SDS011;6123;48.864;9.200;2022-07-23T07:27:48;8.90;;;6.70;;
12118;SDS011;6123;48.864;9.200;2022-07-23T07:30:14;7.25;;;6.65;;
12118;SDS011;6123;48.864;9.200;2022-07-23T07:32:40;7.63;;;6.93;;
12118;SDS011;6123;48.864;9.200;2022-07-23T07:35:08;9.35;;;7.05;;
12118;SDS011;6123;48.864;9.200;2022-07-23T07:37:36;7.78;;;7.18;;
12118;SDS011;6123;48.864;9.200;2022-07-23T07:40:04;9.00;;;8.13;;
12118;SDS011;6123;48.864;9.200;2022-07-23T07:42:30;9.52;;;8.73;;
12118;SDS011;6123;48.864;9.200;2022-07-23T07:44:57;9.00;;;8.32;;
12118;SDS011;6123;48.864;9.200;2022-07-23T07:47:23;9.27;;;8.55;;
12118;SDS011;6123;48.864;9.200;2022-07-23T07:49:48;8.75;;;8.02;;
12118;SDS011;6123;48.864;9.200;2022-07-23T07:52:14;8.98;;;8.27;;
12118;SDS011;6123;48.864;9.200;2022-07-23T07:54:39;8.52;;;7.93;;
12118;SDS011;6123;48.864;9.200;2022-07-23T07:57:05;7.95;;;7.25;;
12118;SDS011;6123;48.864;9.200;2022-07-23T07:59:33;7.78;;;7.18;;
12118;SDS011;6123;48.864;9.200;2022-07-23T08:01:58;8.05;;;7.45;;
12118;SDS011;6123;48.864;9.200;2022-07-23T08:04:24;7.75;;;7.10;;
12118;SDS011;6123;48.864;9.200;2022-07-23T08:06:52;8.23;;;7.53;;
12118;SDS011;6123;48.864;9.200;2022-07-23T08:09:18;8.35;;;7.57;;
12118;SDS011;6123;48.864;9.200;2022-07-23T08:11:43;8.32;;;7.65;;
12118;SDS011;6123;48.864;9.200;2022-07-23T08:14:11;7.88;;;7.18;;
12118;SDS011;6123;48.864;9.200;2022-07-23T08:16:37;6.75;;;6.25;;
12118;SDS011;6123;48.864;9.200;2022-07-23T08:19:03;7.90;;;7.28;;
12118;SDS011;6123;48.864;9.200;2022-07-23T08:21:28;8.23;;;7.45;;
12118;SDS011;6123;48.864;9.200;2022-07-23T08:23:54;7.50;;;6.90;;
12118;SDS011;6123;48.864;9.200;2022-07-23T08:26:19;7.00;;;6.50;;
12118;SDS011;6123;48.864;9.200;2022-07-23T08:28:45;7.60;;;6.93;;
12118;SDS011;6123;48.864;9.200;2022-07-23T08:31:11;7.00;;;6.40;;
12118;SDS011;6123;48.864;9.200;2022-07-23T08:33:37;7.70;;;7.03;;
12118;SDS011;6123;48.864;9.200;2022-07-23T08:36:03;7.20;;;6.50;;
12118;SDS011;6123;48.864;9.200;2022-07-23T08:38:33;7.38;;;6.80;;
12118;SDS011;6123;48.864;9.200;2022-07-23T08:41:00;6.60;;;6.10;;
12118;SDS011;6123;48.864;9.200;2022-07-23T08:43:30;6.30;;;5.80;;
12118;SDS011;6123;48.864;9.200;2022-07-23T08:45:59;6.57;;;6.07;;
12118;SDS011;6123;48.864;9.200;2022-07-23T08:48:26;6.10;;;5.60;;
12118;SDS011;6123;48.864;9.200;2022-07-23T08:50:58;6.35;;;5.88;;
12118;SDS011;6123;48.864;9.200;2022-07-23T08:53:27;6.30;;;5.80;;
12118;SDS011;6123;48.864;9.200;2022-07-23T08:55:55;6.75;;;6.15;;
12118;SDS011;6123;48.864;9.200;2022-07-23T08:58:23;5.63;;;5.22;;
12118;SDS011;6123;48.864;9.200;2022-07-23T09:00:49;6.43;;;5.82;;
12118;SDS011;6123;48.864;9.200;2022-07-23T09:03:19;5.70;;;5.30;;
12118;SDS011;6123;48.864;9.200;2022-07-23T09:05:46;6.07;;;5.57;;
12118;SDS011;6123;48.864;9.200;2022-07-23T09:08:17;5.95;;;5.40;;
12118;SDS011;6123;48.864;9.200;2022-07-23T09:10:54;6.68;;;5.82;;
12118;SDS011;6123;48.864;9.200;2022-07-23T09:18:50;6.32;;;5.90;;
12118;SDS011;6123;48.864;9.200;2022-07-23T09:29:02;5.57;;;5.07;;
12118;SDS011;6123;48.864;9.200;2022-07-23T09:31:41;5.60;;;5.20;;
12118;SDS011;6123;48.864;9.200;2022-07-23T09:34:10;6.50;;;6.00;;
12118;SDS011;6123;48.864;9.200;2022-07-23T09:36:38;5.60;;;5.20;;
12118;SDS011;6123;48.864;9.200;2022-07-23T09:39:04;6.00;;;5.60;;
12118;SDS011;6123;48.864;9.200;2022-07-23T09:41:44;6.05;;;5.55;;
12118;SDS011;6123;48.864;9.200;2022-07-23T09:44:15;5.60;;;5.10;;
12118;SDS011;6123;48.864;9.200;2022-07-23T09:46:46;5.72;;;5.32;;
12118;SDS011;6123;48.864;9.200;2022-07-23T09:51:47;5.82;;;5.43;;
12118;SDS011;6123;48.864;9.200;2022-07-23T09:57:06;6.15;;;5.65;;
12118;SDS011;6123;48.864;9.200;2022-07-23T09:59:36;5.93;;;5.53;;
12118;SDS011;6123;48.864;9.200;2022-07-23T10:02:04;6.35;;;5.95;;
12118;SDS011;6123;48.864;9.200;2022-07-23T10:04:31;6.30;;;5.90;;
12118;SDS011;6123;48.864;9.200;2022-07-23T10:07:02;6.00;;;5.60;;
12118;SDS011;6123;48.864;9.200;2022-07-23T10:09:35;5.75;;;5.38;;
12118;SDS011;6123;48.864;9.200;2022-07-23T10:12:05;5.65;;;5.20;;
12118;SDS011;6123;48.864;9.200;2022-07-23T10:14:38;5.93;;;5.53;;
12118;SDS011;6123;48.864;9.200;2022-07-23T10:17:05;5.93;;;5.43;;
12118;SDS011;6123;48.864;9.200;2022-07-23T10:19:31;5.93;;;5.50;;
12118;SDS011;6123;48.864;9.200;2022-07-23T10:22:01;5.82;;;5.43;;
12118;SDS011;6123;48.864;9.200;2022-07-23T10:32:17;6.78;;;6.38;;
12118;SDS011;6123;48.864;9.200;2022-07-23T10:35:26;6.10;;;5.68;;
12118;SDS011;6123;48.864;9.200;2022-07-23T10:38:20;6.95;;;5.90;;
12118;SDS011;6123;48.864;9.200;2022-07-23T10:41:01;6.68;;;6.18;;
12118;SDS011;6123;48.864;9.200;2022-07-23T10:43:29;6.85;;;6.05;;
12118;SDS011;6123;48.864;9.200;2022-07-23T10:45:56;7.05;;;6.45;;
12118;SDS011;6123;48.864;9.200;2022-07-23T10:48:41;6.28;;;5.75;;
12118;SDS011;6123;48.864;9.200;2022-07-23T10:51:10;6.72;;;6.15;;
12118;SDS011;6123;48.864;9.200;2022-07-23T10:57:27;6.57;;;6.07;;
12118;SDS011;6123;48.864;9.200;2022-07-23T11:02:40;6.38;;;5.82;;
12118;SDS011;6123;48.864;9.200;2022-07-23T11:07:37;6.35;;;5.85;;
12118;SDS011;6123;48.864;9.200;2022-07-23T11:10:32;5.93;;;5.53;;
12118;SDS011;6123;48.864;9.200;2022-07-23T11:34:36;5.57;;;5.18;;
12118;SDS011;6123;48.864;9.200;2022-07-23T11:37:11;5.53;;;5.13;;
12118;SDS011;6123;48.864;9.200;2022-07-23T11:39:53;6.30;;;5.70;;
12118;SDS011;6123;48.864;9.200;2022-07-23T11:42:20;6.20;;;5.70;;
12118;SDS011;6123;48.864;9.200;2022-07-23T11:44:46;6.43;;;5.82;;
12118;SDS011;6123;48.864;9.200;2022-07-23T11:47:12;5.82;;;5.35;;
12118;SDS011;6123;48.864;9.200;2022-07-23T11:49:38;6.25;;;5.80;;
12118;SDS011;6123;48.864;9.200;2022-07-23T11:52:17;7.05;;;5.70;;
12118;SDS011;6123;48.864;9.200;2022-07-23T11:57:29;5.97;;;5.57;;
12118;SDS011;6123;48.864;9.200;2022-07-23T11:59:57;6.15;;;5.72;;
12118;SDS011;6123;48.864;9.200;2022-07-23T12:02:39;5.57;;;5.28;;
12118;SDS011;6123;48.864;9.200;2022-07-23T12:05:07;6.15;;;5.57;;
12118;SDS011;6123;48.864;9.200;2022-07-23T12:07:42;6.20;;;5.63;;
12118;SDS011;6123;48.864;9.200;2022-07-23T12:12:45;6.53;;;6.03;;
12118;SDS011;6123;48.864;9.200;2022-07-23T12:15:11;6.53;;;6.13;;
12118;SDS011;6123;48.864;9.200;2022-07-23T12:17:40;6.72;;;6.22;;
12118;SDS011;6123;48.864;9.200;2022-07-23T12:20:08;7.10;;;6.60;;
12118;SDS011;6123;48.864;9.200;2022-07-23T12:22:40;7.32;;;6.72;;
12118;SDS011;6123;48.864;9.200;2022-07-23T12:25:09;7.95;;;7.20;;
12118;SDS011;6123;48.864;9.200;2022-07-23T12:27:43;9.95;;;9.10;;
12118;SDS011;6123;48.864;9.200;2022-07-23T12:30:31;7.78;;;7.07;;
12118;SDS011;6123;48.864;9.200;2022-07-23T12:32:57;8.18;;;7.47;;
12118;SDS011;6123;48.864;9.200;2022-07-23T12:35:30;7.70;;;7.10;;
12118;SDS011;6123;48.864;9.200;2022-07-23T12:38:05;6.75;;;6.25;;
12118;SDS011;6123;48.864;9.200;2022-07-23T12:40:52;7.05;;;6.40;;
12118;SDS011;6123;48.864;9.200;2022-07-23T12:43:31;6.93;;;6.43;;
12118;SDS011;6123;48.864;9.200;2022-07-23T12:46:14;6.82;;;6.32;;
12118;SDS011;6123;48.864;9.200;2022-07-23T12:51:19;6.70;;;6.22;;
12118;SDS011;6123;48.864;9.200;2022-07-23T12:53:55;7.57;;;6.97;;
12118;SDS011;6123;48.864;9.200;2022-07-23T12:58:55;7.70;;;7.10;;
12118;SDS011;6123;48.864;9.200;2022-07-23T13:06:45;7.07;;;6.50;;
12118;SDS011;6123;48.864;9.200;2022-07-23T13:09:19;7.65;;;7.07;;
12118;SDS011;6123;48.864;9.200;2022-07-23T13:11:49;7.50;;;6.90;;
12118;SDS011;6123;48.864;9.200;2022-07-23T13:14:16;7.03;;;6.53;;
12118;SDS011;6123;48.864;9.200;2022-07-23T13:16:43;6.50;;;6.00;;
12118;SDS011;6123;48.864;9.200;2022-07-23T13:19:10;7.50;;;6.90;;
12118;SDS011;6123;48.864;9.200;2022-07-23T13:21:36;7.88;;;7.25;;
12118;SDS011;6123;48.864;9.200;2022-07-23T13:24:05;6.82;;;6.22;;
12118;SDS011;6123;48.864;9.200;2022-07-23T13:26:32;8.00;;;7.38;;
12118;SDS011;6123;48.864;9.200;2022-07-23T13:28:57;7.90;;;7.30;;
12118;SDS011;6123;48.864;9.200;2022-07-23T13:31:23;7.70;;;7.10;;
12118;SDS011;6123;48.864;9.200;2022-07-23T13:33:49;7.88;;;7.30;;
12118;SDS011;6123;48.864;9.200;2022-07-23T13:36:15;7.65;;;7.05;;
12118;SDS011;6123;48.864;9.200;2022-07-23T13:38:43;8.02;;;7.32;;
12118;SDS011;6123;48.864;9.200;2022-07-23T13:41:09;7.93;;;7.40;;
12118;SDS011;6123;48.864;9.200;2022-07-23T13:43:34;8.32;;;7.68;;
12118;SDS011;6123;48.864;9.200;2022-07-23T13:46:02;8.07;;;7.40;;
12118;SDS011;6123;48.864;9.200;2022-07-23T13:48:28;8.55;;;7.90;;
12118;SDS011;6123;48.864;9.200;2022-07-23T13:50:54;8.20;;;7.50;;
12118;SDS011;6123;48.864;9.200;2022-07-23T13:53:20;8.75;;;8.05;;
12118;SDS011;6123;48.864;9.200;2022-07-23T13:55:50;9.25;;;8.45;;
12118;SDS011;6123;48.864;9.200;2022-07-23T13:58:17;7.80;;;7.13;;
12118;SDS011;6123;48.864;9.200;2022-07-23T14:00:44;8.90;;;8.15;;
12118;SDS011;6123;48.864;9.200;2022-07-23T14:03:12;8.27;;;7.63;;
12118;SDS011;6123;48.864;9.200;2022-07-23T14:05:38;7.50;;;6.90;;
12118;SDS011;6123;48.864;9.200;2022-07-23T14:08:07;6.60;;;6.10;;
12118;SDS011;6123;48.864;9.200;2022-07-23T14:10:32;7.63;;;7.03;;
12118;SDS011;6123;48.864;9.200;2022-07-23T14:13:00;8.38;;;7.68;;
12118;SDS011;6123;48.864;9.200;2022-07-23T14:15:30;7.00;;;6.55;;
12118;SDS011;6123;48.864;9.200;2022-07-23T14:17:57;8.38;;;7.57;;
12118;SDS011;6123;48.864;9.200;2022-07-23T14:20:23;7.75;;;7.20;;
12118;SDS011;6123;48.864;9.200;2022-07-23T14:22:52;7.55;;;6.93;;
12118;SDS011;6123;48.864;9.200;2022-07-23T14:25:22;8.35;;;7.72;;
12118;SDS011;6123;48.864;9.200;2022-07-23T14:27:48;7.43;;;6.82;;
12118;SDS011;6123;48.864;9.200;2022-07-23T14:30:14;6.97;;;6.47;;
12118;SDS011;6123;48.864;9.200;2022-07-23T14:32:40;7.30;;;6.70;;
12118;SDS011;6123;48.864;9.200;2022-07-23T14:35:06;7.18;;;6.53;;
12118;SDS011;6123;48.864;9.200;2022-07-23T14:37:34;7.20;;;6.70;;
12118;SDS011;6123;48.864;9.200;2022-07-23T14:40:03;7.20;;;6.70;;
12118;SDS011;6123;48.864;9.200;2022-07-23T14:42:33;7.18;;;6.68;;
12118;SDS011;6123;48.864;9.200;2022-07-23T14:44:58;7.40;;;6.80;;
12118;SDS011;6123;48.864;9.200;2022-07-23T14:47:24;6.85;;;6.32;;
12118;SDS011;6123;48.864;9.200;2022-07-23T14:49:50;7.05;;;6.50;;
12118;SDS011;6123;48.864;9.200;2022-07-23T14:52:15;7.18;;;6.70;;
12118;SDS011;6123;48.864;9.200;2022-07-23T14:54:43;8.10;;;7.50;;
12118;SDS011;6123;48.864;9.200;2022-07-23T14:57:11;7.75;;;7.05;;
12118;SDS011;6123;48.864;9.200;2022-07-23T14:59:37;7.43;;;6.93;;
12118;SDS011;6123;48.864;9.200;2022-07-23T15:02:02;7.75;;;7.22;;
12118;SDS011;6123;48.864;9.200;2022-07-23T15:04:28;9.98;;;7.00;;
12118;SDS011;6123;48.864;9.200;2022-07-23T15:06:54;7.93;;;7.32;;
12118;SDS011;6123;48.864;9.200;2022-07-23T15:09:19;7.93;;;7.13;;
12118;SDS011;6123;48.864;9.200;2022-07-23T15:11:47;7.63;;;7.13;;
12118;SDS011;6123;48.864;9.200;2022-07-23T15:14:13;7.10;;;6.63;;
12118;SDS011;6123;48.864;9.200;2022-07-23T15:16:39;7.95;;;7.28;;
12118;SDS011;6123;48.864;9.200;2022-07-23T15:19:04;7.68;;;7.10;;
12118;SDS011;6123;48.864;9.200;2022-07-23T15:21:30;6.60;;;6.10;;
12118;SDS011;6123;48.864;9.200;2022-07-23T15:23:58;9.00;;;7.18;;
12118;SDS011;6123;48.864;9.200;2022-07-23T15:26:25;6.97;;;6.47;;
12118;SDS011;6123;48.864;9.200;2022-07-23T15:28:52;8.27;;;7.60;;
12118;SDS011;6123;48.864;9.200;2022-07-23T15:31:17;7.90;;;7.22;;
12118;SDS011;6123;48.864;9.200;2022-07-23T15:33:43;7.20;;;6.70;;
12118;SDS011;6123;48.864;9.200;2022-07-23T15:36:09;6.53;;;6.03;;
12118;SDS011;6123;48.864;9.200;2022-07-23T15:38:36;7.30;;;6.80;;
12118;SDS011;6123;48.864;9.200;2022-07-23T15:41:02;7.28;;;6.47;;
12118;SDS011;6123;48.864;9.200;2022-07-23T15:43:30;7.25;;;6.75;;
12118;SDS011;6123;48.864;9.200;2022-07-23T15:45:56;6.97;;;6.47;;
12118;SDS011;6123;48.864;9.200;2022-07-23T15:48:22;7.47;;;6.88;;
12118;SDS011;6123;48.864;9.200;2022-07-23T15:50:50;7.93;;;7.30;;
12118;SDS011;6123;48.864;9.200;2022-07-23T15:53:16;7.53;;;6.93;;
12118;SDS011;6123;48.864;9.200;2022-07-23T15:55:42;7.72;;;7.10;;
12118;SDS011;6123;48.864;9.200;2022-07-23T15:58:11;7.75;;;7.15;;
12118;SDS011;6123;48.864;9.200;2022-07-23T16:00:39;7.07;;;6.53;;
12118;SDS011;6123;48.864;9.200;2022-07-23T16:03:07;7.88;;;7.28;;
12118;SDS011;6123;48.864;9.200;2022-07-23T16:05:33;7.72;;;7.15;;
12118;SDS011;6123;48.864;9.200;2022-07-23T16:08:02;7.70;;;7.10;;
12118;SDS011;6123;48.864;9.200;2022-07-23T16:10:31;7.53;;;6.93;;
12118;SDS011;6123;48.864;9.200;2022-07-23T16:12:57;7.50;;;6.90;;
12118;SDS011;6123;48.864;9.200;2022-07-23T16:15:23;7.25;;;6.75;;